Time;durP1;ratioP1;P1;durP2;ratioP2;P2;SDS_P1;SDS_P2;PMS_P1;PMS_P2;Temp;Humidity;BMP_temperature;BMP_pressure;BME280_temperature;BME280_humidity;BME280_pressure;Samples;Min_cycle;Max_cycle;Signal;HPM_P1;HPM_P2
2022/09/16 11:16:19;;;;;;;3.73;3.30;;;;;;;;;;5154865;27;20575;-90
2022/09/16 11:18:54;;;;;;;6.83;3.50;;;;;;;;;;5119295;28;20936;-88
2022/09/16 11:21:27;;;;;;;3.93;3.60;;;;;;;;;;5092584;28;20461;-90
2022/09/16 11:24:07;;;;;;;5.40;2.97;;;13.40;99.90;;;;;;5114572;28;20450;-81
2022/09/16 11:26:40;;;;;;;9.53;2.77;;;;;;;;;;5114619;28;20792;-87
2022/09/16 11:29:16;;;;;;;2.57;2.37;;;;;;;;;;5098269;28;20445;-87
2022/09/16 11:31:50;;;;;;;5.40;2.97;;;;;;;;;;5096152;28;20425;-82
2022/09/16 11:34:26;;;;;;;3.63;2.80;;;;;;;;;;5092240;28;20490;-86
2022/09/16 11:37:00;;;;;;;7.10;2.67;;;13.20;99.90;;;;;;5092906;28;20858;-85
2022/09/16 11:39:44;;;;;;;5.13;2.50;;;13.10;99.90;;;;;;5092652;28;20519;-86
2022/09/16 11:42:21;;;;;;;3.43;2.40;;;13.30;99.90;;;;;;5093059;28;20441;-86
2022/09/16 11:44:55;;;;;;;3.67;2.53;;;13.50;99.90;;;;;;5092679;28;20501;-85
2022/09/16 11:47:30;;;;;;;2.47;2.07;;;;;;;;;;5096639;28;20449;-88
2022/09/16 11:50:04;;;;;;;3.20;2.27;;;;;;;;;;5099905;28;20451;-85
2022/09/16 11:52:48;;;;;;;3.40;1.90;;;13.90;99.90;;;;;;5099828;28;20445;-84
2022/09/16 11:55:38;;;;;;;6.27;2.47;;;14.10;99.90;;;;;;5092457;28;20449;-85
2022/09/16 11:58:18;;;;;;;3.53;2.20;;;14.40;99.90;;;;;;5092052;28;20492;-83
2022/09/16 12:00:46;;;;;;;4.47;2.03;;;14.50;99.90;;;;;;5093066;28;20447;-90
2022/09/16 12:03:23;;;;;;;2.63;1.63;;;;;;;;;;5088948;28;20516;-87
2022/09/16 12:05:55;;;;;;;3.67;2.07;;;14.60;99.90;;;;;;5089827;28;20986;-84
2022/09/16 12:08:28;;;;;;;3.20;1.70;;;14.60;99.90;;;;;;5090054;28;20455;-88
2022/09/16 12:10:58;;;;;;;3.80;1.80;;;14.80;99.90;;;;;;5089568;28;20449;-83
2022/09/16 12:13:30;;;;;;;2.90;1.70;;;15.20;99.90;;;;;;5089669;28;20441;-85
2022/09/16 12:16:00;;;;;;;3.07;1.90;;;15.60;99.90;;;;;;5089287;28;20488;-83
2022/09/16 12:18:32;;;;;;;2.50;1.63;;;15.40;99.90;;;;;;5088623;28;20445;-83
2022/09/16 12:21:08;;;;;;;2.23;1.43;;;15.10;99.90;;;;;;5089827;28;20468;-81
2022/09/16 12:23:41;;;;;;;3.33;1.57;;;15.00;99.90;;;;;;5089741;28;20536;-83
2022/09/16 12:26:13;;;;;;;5.60;1.97;;;14.90;99.90;;;;;;5081324;28;20819;-82
2022/09/16 12:28:47;;;;;;;2.83;1.70;;;15.10;99.90;;;;;;5077370;28;20445;-83
2022/09/16 12:31:19;;;;;;;3.40;1.70;;;14.90;99.90;;;;;;5079642;28;20497;-89
2022/09/16 12:33:54;;;;;;;7.70;2.30;;;14.70;99.90;;;;;;5076273;28;20469;-84
2022/09/16 12:36:25;;;;;;;3.33;2.07;;;14.50;99.90;;;;;;5075921;28;20441;-83
2022/09/16 12:38:52;;;;;;;3.70;2.13;;;;;;;;;;5076399;28;20960;-83
2022/09/16 12:41:48;;;;;;;1.80;1.60;;;14.00;99.90;;;;;;5076429;28;20442;-84
2022/09/16 12:44:51;;;;;;;3.20;2.60;;;14.00;99.90;;;;;;5077357;28;20478;-86
2022/09/16 12:47:48;;;;;;;2.77;2.10;;;14.10;99.90;;;;;;5058237;28;20449;-83
2022/09/16 12:50:43;;;;;;;4.10;2.33;;;14.00;99.90;;;;;;5054271;28;20458;-86
2022/09/16 12:53:39;;;;;;;5.10;2.20;;;13.80;99.90;;;;;;5057779;28;20446;-88
2022/09/16 12:56:14;;;;;;;3.97;2.60;;;13.60;99.90;;;;;;5056871;28;20454;-83
2022/09/16 12:58:58;;;;;;;5.73;2.57;;;13.80;99.90;;;;;;5055293;28;20454;-83
2022/09/16 13:01:28;;;;;;;2.70;2.20;;;13.90;99.90;;;;;;5055158;28;20457;-87
2022/09/16 13:03:57;;;;;;;4.50;2.60;;;14.10;99.90;;;;;;5055295;28;20453;-83
2022/09/16 13:06:28;;;;;;;3.30;2.17;;;14.50;99.90;;;;;;5055689;28;20443;-83
2022/09/16 13:08:56;;;;;;;6.20;2.90;;;14.70;99.90;;;;;;5055512;28;20462;-82
2022/09/16 13:11:25;;;;;;;5.87;2.40;;;14.90;99.90;;;;;;5060329;28;20451;-84
2022/09/16 13:13:54;;;;;;;4.07;2.10;;;15.20;99.90;;;;;;5079349;28;20474;-84
2022/09/16 13:16:29;;;;;;;4.00;2.30;;;;;;;;;;5063064;28;20449;-83
2022/09/16 13:19:21;;;;;;;5.80;1.90;;;15.50;99.90;;;;;;5055864;28;20452;-85
2022/09/16 13:21:57;;;;;;;3.47;1.73;;;15.10;99.90;;;;;;5055184;28;20450;-87
2022/09/16 13:24:31;;;;;;;2.00;1.80;;;15.40;99.90;;;;;;5055401;28;20852;-85
2022/09/16 13:26:58;;;;;;;2.47;1.90;;;;;;;;;;5055980;28;20475;-82
2022/09/16 13:29:42;;;;;;;2.70;1.37;;;16.00;99.90;;;;;;5056027;28;20516;-88
2022/09/16 13:32:25;;;;;;;4.00;2.20;;;15.70;99.90;;;;;;5056929;28;20450;-84
2022/09/16 13:35:00;;;;;;;1.97;1.77;;;;;;;;;;5057979;28;20457;-84
2022/09/16 13:37:29;;;;;;;2.87;1.43;;;;;;;;;;5060839;28;20439;-88
2022/09/16 13:39:56;;;;;;;2.07;1.60;;;;;;;;;;5059156;28;20442;-90
2022/09/16 13:42:25;;;;;;;5.70;2.13;;;16.00;99.90;;;;;;5056775;28;20451;-91
2022/09/16 13:44:52;;;;;;;4.70;1.50;;;;;;;;;;5055413;28;20497;-83
2022/09/16 13:47:33;;;;;;;4.90;1.80;;;16.60;98.10;;;;;;5056099;28;20458;-83
2022/09/16 13:50:05;;;;;;;3.23;1.60;;;17.30;99.90;;;;;;5057235;28;20500;-82
2022/09/16 13:52:35;;;;;;;1.93;1.37;;;16.80;97.80;;;;;;5055580;28;20454;-82
2022/09/16 13:55:04;;;;;;;2.73;1.93;;;17.50;99.20;;;;;;5054004;28;20458;-83
2022/09/16 13:57:57;;;;;;;2.47;1.60;;;17.30;93.30;;;;;;5054472;28;20454;-84
2022/09/16 14:00:27;;;;;;;1.60;1.40;;;16.50;97.40;;;;;;5052206;28;20539;-82
2022/09/16 14:03:37;;;;;;;3.20;2.10;;;16.10;97.80;;;;;;5054393;28;20551;-83
2022/09/16 14:06:10;;;;;;;1.60;1.50;;;;;;;;;;5054165;28;20498;-84
2022/09/16 14:08:46;;;;;;;6.60;1.93;;;16.10;99.90;;;;;;5054319;28;20836;-86
2022/09/16 14:11:21;;;;;;;2.47;1.37;;;16.30;99.10;;;;;;5054805;28;20453;-86
2022/09/16 14:13:50;;;;;;;5.20;1.43;;;16.70;97.60;;;;;;5056463;28;20450;-84
2022/09/16 14:16:21;;;;;;;4.97;1.23;;;16.60;98.00;;;;;;5053658;28;20454;-83
2022/09/16 14:18:55;;;;;;;1.50;1.40;;;16.90;95.60;;;;;;5054046;28;20817;-83
2022/09/16 14:21:24;;;;;;;2.80;1.37;;;17.10;94.20;;;;;;5054321;28;20496;-84
2022/09/16 14:23:52;;;;;;;3.30;1.87;;;17.30;95.60;;;;;;5053943;28;20445;-84
2022/09/16 14:26:20;;;;;;;5.40;1.60;;;17.00;95.70;;;;;;5053333;28;21020;-83
2022/09/16 14:28:47;;;;;;;1.57;1.30;;;;;;;;;;5054000;28;20453;-85
2022/09/16 14:31:22;;;;;;;1.23;1.10;;;15.90;97.00;;;;;;5052962;28;20451;-85
2022/09/16 14:33:53;;;;;;;2.10;1.60;;;16.20;98.10;;;;;;5053915;28;20454;-89
2022/09/16 14:36:23;;;;;;;3.37;1.63;;;16.40;96.40;;;;;;5053653;28;20819;-84
2022/09/16 14:38:58;;;;;;;4.63;2.07;;;16.90;98.50;;;;;;5053555;28;20454;-85
2022/09/16 14:41:29;;;;;;;1.67;1.47;;;17.00;95.70;;;;;;5053774;28;20873;-84
2022/09/16 14:43:59;;;;;;;2.70;1.70;;;16.80;96.70;;;;;;5053451;28;20446;-88
2022/09/16 14:46:27;;;;;;;2.90;1.77;;;;;;;;;;5052661;28;20497;-87
2022/09/16 14:48:54;;;;;;;4.13;1.83;;;;;;;;;;5054541;28;20466;-89
2022/09/16 14:51:24;;;;;;;2.20;1.70;;;16.90;94.90;;;;;;5054165;28;20948;-90
2022/09/16 14:54:00;;;;;;;4.40;1.83;;;16.50;94.90;;;;;;5053691;28;20447;-86
2022/09/16 14:56:29;;;;;;;4.97;1.60;;;15.70;95.90;;;;;;5053410;28;20960;-85
2022/09/16 14:58:57;;;;;;;8.57;1.70;;;15.80;98.50;;;;;;5053439;28;20442;-85
2022/09/16 15:01:27;;;;;;;9.93;2.07;;;15.70;99.50;;;;;;5053463;28;20443;-88
2022/09/16 15:03:56;;;;;;;3.47;1.70;;;;;;;;;;5053238;28;20537;-90
2022/09/16 15:06:26;;;;;;;2.00;1.37;;;16.00;97.90;;;;;;5053954;28;20486;-86
2022/09/16 15:08:58;;;;;;;2.60;1.77;;;16.00;99.10;;;;;;5053338;28;20450;-81
2022/09/16 15:11:30;;;;;;;5.00;2.07;;;16.00;99.90;;;;;;5054103;28;20524;-86
2022/09/16 15:13:57;;;;;;;4.03;1.63;;;;;;;;;;5054003;28;20483;-84
2022/09/16 15:16:25;;;;;;;2.40;1.57;;;15.30;98.20;;;;;;5051971;28;20461;-84
2022/09/16 15:18:55;;;;;;;3.00;1.57;;;15.10;99.90;;;;;;5053913;28;20819;-90
2022/09/16 15:21:25;;;;;;;4.70;1.50;;;15.10;99.90;;;;;;5052943;28;20953;-85
2022/09/16 15:23:55;;;;;;;3.10;1.63;;;15.20;99.20;;;;;;5052835;28;20451;-84
2022/09/16 15:26:24;;;;;;;1.50;1.20;;;15.20;98.00;;;;;;5052312;28;20501;-85
2022/09/16 15:28:57;;;;;;;3.10;1.63;;;;;;;;;;5052669;28;20473;-83
2022/09/16 15:31:33;;;;;;;5.13;1.60;;;15.20;99.90;;;;;;5051349;28;20463;-83
2022/09/16 15:34:02;;;;;;;3.03;1.60;;;15.10;99.90;;;;;;5052640;28;20461;-82
2022/09/16 15:36:38;;;;;;;5.37;2.17;;;15.00;99.90;;;;;;5052460;28;20447;-81
2022/09/16 15:39:06;;;;;;;2.37;1.50;;;15.20;98.70;;;;;;5052746;28;20493;-94
2022/09/16 15:41:33;;;;;;;2.70;1.40;;;;;;;;;;5052792;28;20446;-82
2022/09/16 15:44:02;;;;;;;1.90;1.53;;;;;;;;;;5052536;28;20454;-83
2022/09/16 15:46:29;;;;;;;3.10;1.63;;;;;;;;;;5050894;28;20498;-84
2022/09/16 15:48:59;;;;;;;2.00;1.27;;;15.50;95.90;;;;;;5052562;28;20533;-86
2022/09/16 15:51:34;;;;;;;1.57;1.43;;;15.20;96.50;;;;;;5052485;28;20454;-86
2022/09/16 15:54:07;;;;;;;2.37;1.30;;;15.10;97.40;;;;;;5052453;28;20446;-83
2022/09/16 15:56:38;;;;;;;1.73;1.37;;;15.10;98.30;;;;;;5052477;28;20443;-83
2022/09/16 15:59:25;;;;;;;3.83;1.50;;;15.00;98.20;;;;;;5052795;28;20450;-86
2022/09/16 16:01:54;;;;;;;2.83;1.80;;;15.00;99.50;;;;;;5053716;28;20457;-88
2022/09/16 16:04:29;;;;;;;4.83;1.57;;;15.00;99.90;;;;;;5056090;28;20442;-85
2022/09/16 16:06:58;;;;;;;2.10;1.20;;;14.80;99.90;;;;;;5056099;28;20509;-84
2022/09/16 16:09:37;;;;;;;2.03;1.43;;;14.70;99.90;;;;;;5056142;28;20478;-86
2022/09/16 16:12:07;;;;;;;1.43;1.20;;;14.60;99.90;;;;;;5056043;28;20459;-85
2022/09/16 16:14:36;;;;;;;3.90;2.00;;;;;;;;;;5055785;28;20482;-83
2022/09/16 16:17:05;;;;;;;6.83;1.70;;;14.70;99.90;;;;;;5054595;28;20459;-83
2022/09/16 16:19:32;;;;;;;5.37;1.40;;;;;;;;;;5055905;28;20462;-86
2022/09/16 16:21:59;;;;;;;1.97;1.53;;;;;;;;;;5055806;28;20450;-85
2022/09/16 16:24:28;;;;;;;2.67;1.60;;;;;;;;;;5055864;28;20450;-85
2022/09/16 16:26:55;;;;;;;2.87;1.70;;;;;;;;;;5055354;28;20525;-82
2022/09/16 16:29:22;;;;;;;2.07;1.40;;;;;;;;;;5055734;28;20454;-85
2022/09/16 16:32:00;;;;;;;3.37;1.30;;;;;;;;;;5054564;28;20466;-86
2022/09/16 16:34:28;;;;;;;2.17;1.57;;;;;;;;;;5055583;28;20481;-83
2022/09/16 16:36:55;;;;;;;2.93;1.63;;;;;;;;;;5055453;28;20446;-85
2022/09/16 16:39:23;;;;;;;2.50;1.63;;;;;;;;;;5055746;28;20450;-85
2022/09/16 16:41:50;;;;;;;1.40;1.30;;;;;;;;;;5055473;28;20466;-84
2022/09/16 16:44:17;;;;;;;2.00;1.67;;;;;;;;;;5055366;28;20450;-89
2022/09/16 16:46:44;;;;;;;3.73;1.60;;;;;;;;;;5054393;28;20498;-87
2022/09/16 16:49:12;;;;;;;7.50;2.10;;;14.10;99.90;;;;;;5055392;28;20446;-84
2022/09/16 16:51:39;;;;;;;2.23;1.70;;;;;;;;;;5055344;28;20446;-84
2022/09/16 16:54:06;;;;;;;1.90;1.30;;;;;;;;;;5055240;28;20459;-84
2022/09/16 16:56:33;;;;;;;5.20;1.27;;;;;;;;;;5055149;28;20462;-84
2022/09/16 16:59:01;;;;;;;5.07;1.40;;;;;;;;;;5054887;28;20450;-85
2022/09/16 17:01:29;;;;;;;2.83;1.63;;;;;;;;;;5053133;28;20451;-85
2022/09/16 17:03:57;;;;;;;1.80;1.33;;;;;;;;;;5055152;28;20462;-85
2022/09/16 17:06:25;;;;;;;3.10;1.30;;;13.40;99.90;;;;;;5054893;28;20955;-84
2022/09/16 17:08:52;;;;;;;3.53;1.50;;;;;;;;;;5054880;28;20442;-85
2022/09/16 17:11:20;;;;;;;1.63;1.20;;;13.30;99.90;;;;;;5054562;28;20823;-87
2022/09/16 17:13:50;;;;;;;3.77;1.67;;;13.20;99.90;;;;;;5054692;28;20455;-84
2022/09/16 17:16:19;;;;;;;1.70;1.50;;;13.20;99.90;;;;;;5053471;28;20813;-85
2022/09/16 17:18:46;;;;;;;1.97;1.30;;;;;;;;;;5054426;28;20443;-85
2022/09/16 17:21:15;;;;;;;4.80;1.83;;;13.00;99.90;;;;;;5054531;28;20447;-86
2022/09/16 17:23:43;;;;;;;1.17;1.07;;;13.00;99.90;;;;;;5054598;28;20453;-86
2022/09/16 17:26:11;;;;;;;2.80;1.37;;;;;;;;;;5054451;28;20493;-86
2022/09/16 17:28:39;;;;;;;3.93;1.40;;;12.90;99.90;;;;;;5054416;28;20462;-85
2022/09/16 17:31:09;;;;;;;4.77;1.50;;;12.90;99.90;;;;;;5053965;28;20454;-85
2022/09/16 17:33:36;;;;;;;2.93;1.57;;;;;;;;;;5053358;28;20451;-90
2022/09/16 17:36:05;;;;;;;3.53;1.50;;;13.10;99.90;;;;;;5054553;28;20455;-91
2022/09/16 17:38:32;;;;;;;5.37;1.47;;;;;;;;;;5054373;28;20938;-85
2022/09/16 17:41:05;;;;;;;1.43;1.33;;;12.90;99.90;;;;;;5054279;28;20447;-87
2022/09/16 17:43:33;;;;;;;3.13;0.90;;;;;;;;;;5054205;28;20450;-86
2022/09/16 17:46:00;;;;;;;4.60;1.37;;;;;;;;;;5053628;28;20494;-87
2022/09/16 17:48:28;;;;;;;3.23;1.40;;;;;;;;;;5052859;28;20455;-86
2022/09/16 17:50:55;;;;;;;3.07;1.70;;;;;;;;;;5054339;28;20819;-91
2022/09/16 17:53:23;;;;;;;10.93;6.80;;;;;;;;;;5055174;28;20516;-89
2022/09/16 17:55:53;;;;;;;6.90;3.77;;;;;;;;;;5054242;28;20956;-92
2022/09/16 17:58:25;;;;;;;3.40;1.60;;;;;;;;;;5054195;28;20534;-87
2022/09/16 18:00:52;;;;;;;2.80;1.73;;;;;;;;;;5053499;28;20455;-87
2022/09/16 18:03:19;;;;;;;1.83;1.37;;;;;;;;;;5052712;28;20925;-87
2022/09/16 18:05:46;;;;;;;5.77;2.50;;;;;;;;;;5053916;28;20588;-87
2022/09/16 18:08:13;;;;;;;3.53;2.10;;;;;;;;;;5053790;28;20447;-84
2022/09/16 18:10:40;;;;;;;2.40;1.50;;;;;;;;;;5053692;28;20465;-88
2022/09/16 18:13:08;;;;;;;5.03;1.60;;;;;;;;;;5051434;28;20446;-86
2022/09/16 18:15:37;;;;;;;2.93;1.80;;;;;;;;;;5053484;28;20917;-87
2022/09/16 18:18:04;;;;;;;2.10;1.90;;;;;;;;;;5052348;28;20803;-87
2022/09/16 18:20:31;;;;;;;3.50;1.60;;;;;;;;;;5053273;28;20840;-86
2022/09/16 18:22:58;;;;;;;3.90;1.77;;;;;;;;;;5053193;28;20538;-87
2022/09/16 18:25:25;;;;;;;2.40;1.70;;;;;;;;;;5053240;28;20479;-88
2022/09/16 18:27:53;;;;;;;5.87;2.00;;;;;;;;;;5053258;28;20497;-88
2022/09/16 18:30:20;;;;;;;3.20;1.90;;;;;;;;;;5053423;28;20450;-88
2022/09/16 18:32:49;;;;;;;6.60;1.93;;;;;;;;;;5052275;28;20454;-87
2022/09/16 18:35:16;;;;;;;1.80;1.50;;;;;;;;;;5053674;28;20946;-88
2022/09/16 18:37:43;;;;;;;1.83;1.67;;;;;;;;;;5053154;28;21010;-88
2022/09/16 18:40:11;;;;;;;3.30;1.73;;;;;;;;;;5053470;28;20450;-88
2022/09/16 18:42:38;;;;;;;4.10;1.53;;;;;;;;;;5053347;28;20490;-88
2022/09/16 18:45:07;;;;;;;6.47;2.03;;;;;;;;;;5053159;28;20520;-87
2022/09/16 18:47:34;;;;;;;6.03;2.00;;;;;;;;;;5052108;28;20490;-88
2022/09/16 18:50:03;;;;;;;3.13;1.67;;;;;;;;;;5053643;28;20867;-89
2022/09/16 18:52:30;;;;;;;3.70;1.77;;;;;;;;;;5052896;28;20798;-87
2022/09/16 18:54:57;;;;;;;2.23;1.70;;;;;;;;;;5053721;28;20448;-87
2022/09/16 18:57:24;;;;;;;3.93;1.60;;;;;;;;;;5053101;28;20521;-87
2022/09/16 18:59:51;;;;;;;2.47;1.80;;;;;;;;;;5052816;28;20566;-88
2022/09/16 19:02:18;;;;;;;2.77;1.90;;;;;;;;;;5051700;28;20449;-87
2022/09/16 19:04:45;;;;;;;2.07;1.63;;;;;;;;;;5052825;28;20446;-86
2022/09/16 19:07:16;;;;;;;1.50;1.40;;;;;;;;;;5052741;28;20497;-87
2022/09/16 19:09:44;;;;;;;2.00;1.63;;;;;;;;;;5052894;28;20542;-87
2022/09/16 19:12:12;;;;;;;4.93;1.77;;;;;;;;;;5052705;28;20538;-87
2022/09/16 19:14:40;;;;;;;2.70;1.77;;;;;;;;;;5052784;28;20482;-87
2022/09/16 19:17:07;;;;;;;1.93;1.40;;;;;;;;;;5051969;28;20854;-88
2022/09/16 19:19:34;;;;;;;1.70;1.60;;;;;;;;;;5052965;28;21013;-87
2022/09/16 19:22:04;;;;;;;1.50;1.40;;;;;;;;;;5052777;28;20457;-87
2022/09/16 19:24:32;;;;;;;1.37;1.27;;;;;;;;;;5052636;28;20508;-82
2022/09/16 19:27:00;;;;;;;3.77;1.63;;;;;;;;;;5052441;28;20551;-87
2022/09/16 19:29:27;;;;;;;5.73;1.70;;;;;;;;;;5053058;28;20451;-87
2022/09/16 19:31:54;;;;;;;4.50;1.90;;;;;;;;;;5052525;28;20439;-89
2022/09/16 19:34:21;;;;;;;3.80;1.87;;;;;;;;;;5053056;28;20446;-87
2022/09/16 19:36:49;;;;;;;1.83;1.67;;;;;;;;;;5055170;28;20458;-87
2022/09/16 19:39:16;;;;;;;4.13;1.60;;;;;;;;;;5056499;28;20449;-86
2022/09/16 19:41:45;;;;;;;1.50;1.40;;;;;;;;;;5056873;28;20454;-86
2022/09/16 19:44:13;;;;;;;1.90;1.60;;;10.00;99.90;;;;;;5056866;28;20459;-86
2022/09/16 19:46:41;;;;;;;2.50;1.50;;;;;;;;;;5055665;28;20482;-87
2022/09/16 19:49:08;;;;;;;3.80;1.63;;;;;;;;;;5056788;28;20892;-89
2022/09/16 19:51:36;;;;;;;1.80;1.70;;;;;;;;;;5056793;28;20457;-87
2022/09/16 19:54:04;;;;;;;2.87;1.90;;;;;;;;;;5056731;28;20963;-88
2022/09/16 19:56:32;;;;;;;6.37;1.63;;;;;;;;;;5056988;28;20458;-88
2022/09/16 19:59:01;;;;;;;1.50;1.40;;;;;;;;;;5056739;28;20938;-87
2022/09/16 20:01:29;;;;;;;1.43;1.33;;;;;;;;;;5056067;28;20515;-87
2022/09/16 20:03:56;;;;;;;1.50;1.40;;;;;;;;;;5056828;28;20482;-87
2022/09/16 20:06:25;;;;;;;2.87;1.30;;;;;;;;;;5056277;28;20446;-88
2022/09/16 20:08:53;;;;;;;1.60;1.50;;;;;;;;;;5056498;28;20457;-86
2022/09/16 20:11:21;;;;;;;2.60;1.13;;;;;;;;;;5056686;28;20434;-87
2022/09/16 20:13:49;;;;;;;2.60;1.37;;;;;;;;;;5056175;28;20458;-87
2022/09/16 20:16:18;;;;;;;2.70;1.47;;;;;;;;;;5055558;28;20458;-85
2022/09/16 20:18:45;;;;;;;1.23;1.13;;;;;;;;;;5055657;28;20545;-85
2022/09/16 20:21:14;;;;;;;2.80;1.20;;;9.90;99.90;;;;;;5055369;28;20948;-86
2022/09/16 20:23:43;;;;;;;1.40;1.10;;;9.80;99.90;;;;;;5055847;28;20486;-86
2022/09/16 20:26:13;;;;;;;2.23;1.10;;;9.90;99.90;;;;;;5056009;28;21009;-86
2022/09/16 20:28:42;;;;;;;1.20;1.10;;;9.90;99.90;;;;;;5055796;28;20532;-85
2022/09/16 20:31:10;;;;;;;1.30;1.20;;;;;;;;;;5055774;28;20958;-86
2022/09/16 20:33:38;;;;;;;3.00;1.20;;;;;;;;;;5054566;28;20524;-86
2022/09/16 20:36:06;;;;;;;1.83;1.20;;;;;;;;;;5055078;28;20447;-85
2022/09/16 20:38:34;;;;;;;1.57;1.33;;;;;;;;;;5055736;28;20446;-90
2022/09/16 20:41:04;;;;;;;1.73;1.17;;;;;;;;;;5055500;28;20446;-85
2022/09/16 20:43:31;;;;;;;2.10;1.00;;;;;;;;;;5055450;28;20443;-85
2022/09/16 20:46:04;;;;;;;2.73;0.80;;;9.60;99.90;;;;;;5055367;28;20453;-85
2022/09/16 20:48:31;;;;;;;3.43;0.80;;;;;;;;;;5053518;28;20502;-84
2022/09/16 20:51:03;;;;;;;0.80;0.80;;;9.60;99.90;;;;;;5055375;28;20446;-86
2022/09/16 20:53:30;;;;;;;1.90;1.00;;;;;;;;;;5055694;28;20513;-87
2022/09/16 20:56:00;;;;;;;1.53;0.90;;;;;;;;;;5055249;28;20455;-86
2022/09/16 20:58:27;;;;;;;0.83;0.70;;;;;;;;;;5055550;28;20462;-88
2022/09/16 21:00:55;;;;;;;2.90;0.90;;;;;;;;;;5055011;28;20447;-87
2022/09/16 21:03:22;;;;;;;1.13;0.90;;;;;;;;;;5054157;28;20438;-85
2022/09/16 21:05:49;;;;;;;1.70;0.93;;;;;;;;;;5055105;28;20446;-85
2022/09/16 21:08:17;;;;;;;1.30;1.00;;;;;;;;;;5055714;28;20490;-85
2022/09/16 21:10:44;;;;;;;1.20;0.80;;;;;;;;;;5055269;28;20451;-84
2022/09/16 21:13:11;;;;;;;0.70;0.60;;;;;;;;;;5054878;28;20454;-84
2022/09/16 21:15:38;;;;;;;0.70;0.70;;;;;;;;;;5054748;28;20479;-89
2022/09/16 21:18:05;;;;;;;0.73;0.70;;;;;;;;;;5053649;28;20449;-85
2022/09/16 21:20:32;;;;;;;1.33;1.07;;;;;;;;;;5054856;28;20446;-85
2022/09/16 21:23:00;;;;;;;0.93;0.80;;;;;;;;;;5054885;28;20435;-85
2022/09/16 21:25:29;;;;;;;5.20;1.23;;;;;;;;;;5054997;28;20478;-85
2022/09/16 21:27:56;;;;;;;0.60;0.40;;;;;;;;;;5054629;28;21081;-87
2022/09/16 21:30:23;;;;;;;0.77;0.67;;;;;;;;;;5054803;28;20492;-84
2022/09/16 21:32:50;;;;;;;1.30;0.70;;;;;;;;;;5053658;28;20457;-86
2022/09/16 21:35:17;;;;;;;1.07;0.80;;;;;;;;;;5055014;28;20465;-87
2022/09/16 21:37:44;;;;;;;1.00;0.80;;;;;;;;;;5054965;28;20442;-86
2022/09/16 21:40:12;;;;;;;2.53;2.13;;;;;;;;;;5055055;28;20462;-87
2022/09/16 21:42:40;;;;;;;0.80;0.57;;;;;;;;;;5054371;28;21007;-85
2022/09/16 21:45:08;;;;;;;1.87;0.57;;;;;;;;;;5054442;28;20450;-87
2022/09/16 21:47:35;;;;;;;2.30;1.10;;;;;;;;;;5053327;28;20494;-85
2022/09/16 21:50:04;;;;;;;1.00;0.83;;;;;;;;;;5054310;28;20455;-87
2022/09/16 21:52:31;;;;;;;0.83;0.80;;;;;;;;;;5054440;28;20450;-85
2022/09/16 21:54:58;;;;;;;2.20;0.90;;;;;;;;;;5054249;28;20454;-86
2022/09/16 21:57:25;;;;;;;1.33;0.77;;;;;;;;;;5054321;28;20458;-85
2022/09/16 21:59:54;;;;;;;2.40;0.90;;;;;;;;;;5053051;28;20980;-87
2022/09/16 22:02:21;;;;;;;1.13;1.00;;;;;;;;;;5053038;28;20797;-87
2022/09/16 22:04:48;;;;;;;0.80;0.70;;;;;;;;;;5054269;28;20947;-85
2022/09/16 22:07:15;;;;;;;0.90;0.63;;;;;;;;;;5054575;28;20474;-87
2022/09/16 22:09:42;;;;;;;1.03;0.77;;;;;;;;;;5054114;28;20469;-89
2022/09/16 22:12:09;;;;;;;1.17;0.70;;;;;;;;;;5054391;28;20446;-86
2022/09/16 22:14:36;;;;;;;1.93;0.60;;;;;;;;;;5054124;28;20474;-85
2022/09/16 22:17:05;;;;;;;2.30;1.00;;;;;;;;;;5052684;28;20457;-88
2022/09/16 22:19:33;;;;;;;0.90;0.60;;;;;;;;;;5053911;28;20446;-87
2022/09/16 22:22:00;;;;;;;1.13;0.63;;;;;;;;;;5054088;28;20451;-85
2022/09/16 22:24:27;;;;;;;4.00;1.17;;;;;;;;;;5054037;28;20466;-87
2022/09/16 22:26:54;;;;;;;2.20;1.77;;;;;;;;;;5053642;28;20788;-88
2022/09/16 22:29:21;;;;;;;1.60;0.67;;;;;;;;;;5054656;28;20447;-89
2022/09/16 22:31:49;;;;;;;0.93;0.70;;;;;;;;;;5053384;28;20511;-89
2022/09/16 22:34:17;;;;;;;1.60;0.80;;;;;;;;;;5053389;28;20453;-89
2022/09/16 22:36:45;;;;;;;2.43;1.00;;;;;;;;;;5053422;28;20442;-87
2022/09/16 22:39:13;;;;;;;1.07;0.70;;;;;;;;;;5053954;28;20450;-88
2022/09/16 22:41:40;;;;;;;2.60;0.90;;;;;;;;;;5053556;28;20451;-89
2022/09/16 22:44:07;;;;;;;3.60;1.13;;;;;;;;;;5053606;28;20817;-87
2022/09/16 22:46:35;;;;;;;1.03;0.70;;;;;;;;;;5054401;28;20538;-88
2022/09/16 22:49:02;;;;;;;1.47;0.70;;;;;;;;;;5053890;28;20521;-88
2022/09/16 22:51:31;;;;;;;1.37;0.80;;;;;;;;;;5053605;28;20469;-88
2022/09/16 22:53:58;;;;;;;3.03;0.97;;;;;;;;;;5054521;28;20537;-88
2022/09/16 22:56:30;;;;;;;2.93;1.03;;;;;;;;;;5055754;28;20549;-88
2022/09/16 22:58:58;;;;;;;2.70;1.27;;;;;;;;;;5054637;28;20516;-88
2022/09/16 23:01:26;;;;;;;1.17;0.80;;;;;;;;;;5052466;28;20901;-87
2022/09/16 23:03:54;;;;;;;3.10;1.20;;;;;;;;;;5054166;28;20482;-88
2022/09/16 23:06:22;;;;;;;1.20;0.70;;;;;;;;;;5055794;28;20508;-88
2022/09/16 23:08:51;;;;;;;1.50;0.70;;;;;;;;;;5054844;28;20492;-88
2022/09/16 23:11:19;;;;;;;1.10;0.77;;;;;;;;;;5053261;28;20474;-88
2022/09/16 23:13:49;;;;;;;0.70;0.70;;;;;;;;;;5055978;28;20458;-87
2022/09/16 23:16:18;;;;;;;1.60;0.80;;;;;;;;;;5057498;28;20814;-88
2022/09/16 23:18:46;;;;;;;4.93;1.07;;;;;;;;;;5056532;28;20457;-89
2022/09/16 23:21:15;;;;;;;6.53;1.03;;;9.20;99.90;;;;;;5054151;28;20461;-84
2022/09/16 23:23:43;;;;;;;2.73;0.70;;;;;;;;;;5056871;28;20450;-88
2022/09/16 23:26:13;;;;;;;0.90;0.70;;;;;;;;;;5074933;28;20438;-91
2022/09/16 23:28:40;;;;;;;1.00;0.80;;;;;;;;;;5073023;28;20494;-88
2022/09/16 23:31:08;;;;;;;1.83;1.10;;;;;;;;;;5053623;28;20860;-87
2022/09/16 23:33:35;;;;;;;1.20;0.87;;;;;;;;;;5053091;28;20872;-88
2022/09/16 23:36:03;;;;;;;4.00;1.00;;;;;;;;;;5054036;28;20998;-88
2022/09/16 23:38:30;;;;;;;0.80;0.70;;;;;;;;;;5053848;28;20960;-90
2022/09/16 23:40:58;;;;;;;0.70;0.60;;;;;;;;;;5053383;28;20451;-89
2022/09/16 23:43:27;;;;;;;1.00;0.80;;;;;;;;;;5053717;28;20479;-89
2022/09/16 23:45:54;;;;;;;3.27;0.93;;;;;;;;;;5053094;28;20467;-88
2022/09/16 23:48:21;;;;;;;2.20;0.83;;;;;;;;;;5052076;28;20905;-88
2022/09/16 23:50:49;;;;;;;1.10;1.00;;;;;;;;;;5053203;28;20853;-87
2022/09/16 23:53:16;;;;;;;1.30;0.73;;;;;;;;;;5053315;28;20815;-88
2022/09/16 23:55:43;;;;;;;2.03;0.87;;;;;;;;;;5054774;28;20562;-86
2022/09/16 23:58:11;;;;;;;2.00;1.30;;;;;;;;;;5053695;28;20464;-88
